Laurel Park, Pennsylvania
Current Conditions -  °F | °C
As of 9:53 AM on Thursday 23 Oct 2014 (Local Time) from KSEG Reporting Station
Overcast Overcast  
Wind Chill: 53°   Ceiling: 2700
Heat Index: 53°   Visibility: 10mi
Dew Point: 43°   Wind: 17mph
Humidity: 69%   Direction: 340°NNW
Pressure: 29.92"   Gusts: 21mph
Location:  40.8646°N, 77.2394°W
Report Text: KSEG 231353Z AUTO 34015G18KT 10SM OVC027 12/06 A2992 RMK AO2 SLP131 T01170061
Loading
Personal Weather Stations






























Interactive Weather Map
Tropical Storm Tracking
New forecast layout! Learn more

10-Day Weather Forecast

Advertisements
Track Severe Weather on mobile